createdAt,value
2018-10-09T00:00:36.434Z,15.93
2018-10-09T00:03:04.907Z,16.17
2018-10-09T00:05:33.309Z,15.50
2018-10-09T00:08:01.786Z,15.55
2018-10-09T00:10:30.236Z,15.30
2018-10-09T00:12:59.267Z,15.53
2018-10-09T00:15:27.707Z,16.35
2018-10-09T00:17:56.258Z,16.93
2018-10-09T00:20:25.561Z,17.20
2018-10-09T00:22:57.035Z,16.37
2018-10-09T00:25:25.806Z,16.97
2018-10-09T00:27:54.786Z,17.12
2018-10-09T00:30:23.569Z,17.07
2018-10-09T00:32:52.095Z,16.32
2018-10-09T00:35:20.506Z,17.67
2018-10-09T00:37:48.934Z,16.37
2018-10-09T00:40:17.946Z,16.87
2018-10-09T00:42:46.466Z,17.42
2018-10-09T00:45:14.975Z,16.85
2018-10-09T00:47:43.478Z,17.05
2018-10-09T00:50:12.123Z,16.00
2018-10-09T00:52:40.946Z,17.23
2018-10-09T00:55:10.395Z,17.35
2018-10-09T00:57:38.806Z,17.65
2018-10-09T01:00:08.798Z,16.90
2018-10-09T01:02:37.262Z,16.30
2018-10-09T01:05:05.826Z,17.52
2018-10-09T01:07:34.326Z,17.15
2018-10-09T01:10:02.800Z,18.23
2018-10-09T01:12:31.225Z,16.77
2018-10-09T01:15:00.253Z,17.70
2018-10-09T01:17:28.654Z,17.62
2018-10-09T01:19:57.670Z,16.07
2018-10-09T01:22:26.125Z,17.10
2018-10-09T01:24:55.075Z,17.07
2018-10-09T01:27:24.299Z,18.27
2018-10-09T01:29:52.775Z,18.02
2018-10-09T01:32:21.202Z,17.20
2018-10-09T01:34:49.651Z,16.87
2018-10-09T01:37:18.101Z,18.05
2018-10-09T01:39:46.534Z,17.15
2018-10-09T01:42:15.047Z,17.05
2018-10-09T01:44:43.602Z,16.80
2018-10-09T01:47:12.054Z,17.57
2018-10-09T01:49:40.430Z,16.45
2018-10-09T01:52:09.640Z,17.50
2018-10-09T01:54:38.035Z,17.40
2018-10-09T01:57:06.558Z,16.90
2018-10-09T01:59:34.998Z,17.25
2018-10-09T02:02:03.478Z,16.87
2018-10-09T02:04:31.902Z,17.62
2018-10-09T02:07:00.401Z,17.50
2018-10-09T02:09:28.919Z,17.82
2018-10-09T02:11:57.446Z,16.27
2018-10-09T02:14:25.836Z,16.90
2018-10-09T02:16:54.313Z,17.10
2018-10-09T02:19:22.926Z,17.48
2018-10-09T02:21:51.355Z,17.15
2018-10-09T02:24:19.790Z,17.17
2018-10-09T02:26:49.035Z,18.50
2018-10-09T02:29:17.485Z,17.37
2018-10-09T02:31:46.562Z,18.25
2018-10-09T02:34:14.950Z,17.00
2018-10-09T02:36:44.058Z,18.85
2018-10-09T02:39:12.658Z,17.92
2018-10-09T02:41:41.089Z,18.20
2018-10-09T02:44:10.187Z,17.70
2018-10-09T02:46:38.722Z,18.62
2018-10-09T02:49:07.295Z,18.50
2018-10-09T02:51:36.143Z,17.80
2018-10-09T02:54:04.558Z,18.35
2018-10-09T02:56:33.038Z,18.07
2018-10-09T02:59:02.229Z,18.10
2018-10-09T03:01:30.659Z,18.90
2018-10-09T03:03:59.150Z,18.80
2018-10-09T03:06:27.614Z,17.95
2018-10-09T03:08:56.091Z,18.80
2018-10-09T03:11:24.540Z,19.40
2018-10-09T03:13:52.934Z,17.85
2018-10-09T03:16:21.404Z,20.60
2018-10-09T03:18:50.451Z,19.92
2018-10-09T03:21:18.864Z,19.20
2018-10-09T03:23:47.271Z,19.25
2018-10-09T03:26:15.807Z,19.70
2018-10-09T03:28:44.233Z,20.45
2018-10-09T03:31:12.661Z,19.23
2018-10-09T03:33:41.102Z,19.87
2018-10-09T03:36:10.119Z,19.42
2018-10-09T03:38:38.499Z,19.55
2018-10-09T03:41:07.211Z,20.08
2018-10-09T03:43:35.638Z,20.37
2018-10-09T03:46:04.251Z,20.10
2018-10-09T03:48:32.682Z,20.75
2018-10-09T03:51:01.135Z,21.50
2018-10-09T03:53:29.550Z,21.80
2018-10-09T03:55:58.366Z,21.40
2018-10-09T03:58:26.771Z,22.62
2018-10-09T04:00:55.287Z,21.62
2018-10-09T04:03:23.852Z,21.37
2018-10-09T04:05:52.427Z,21.07
2018-10-09T04:08:20.890Z,21.95
2018-10-09T04:10:49.302Z,22.40
2018-10-09T04:13:17.865Z,22.60
2018-10-09T04:15:46.314Z,22.13
2018-10-09T04:18:14.739Z,22.22
2018-10-09T04:20:43.857Z,21.97
2018-10-09T04:23:13.047Z,22.32
2018-10-09T04:25:41.493Z,22.60
2018-10-09T04:28:09.964Z,22.62
2018-10-09T04:30:38.433Z,23.85
2018-10-09T04:33:06.950Z,23.70
2018-10-09T04:35:35.396Z,23.60
2018-10-09T04:38:03.869Z,23.02
2018-10-09T04:40:32.327Z,24.92
2018-10-09T04:43:00.835Z,24.05
2018-10-09T04:45:30.033Z,23.52
2018-10-09T04:47:59.860Z,24.35
2018-10-09T04:50:28.296Z,23.05
2018-10-09T04:52:56.728Z,26.02
2018-10-09T04:55:25.172Z,23.07
2018-10-09T04:57:54.317Z,23.38
2018-10-09T05:00:22.759Z,22.37
2018-10-09T05:02:51.179Z,24.23
2018-10-09T05:05:19.719Z,22.70
2018-10-09T05:07:48.159Z,24.15
2018-10-09T05:10:16.614Z,24.27
2018-10-09T05:12:45.130Z,24.75
2018-10-09T05:15:13.701Z,24.18
2018-10-09T05:17:42.160Z,25.92
2018-10-09T05:20:11.133Z,25.05
2018-10-09T05:22:39.932Z,24.35
2018-10-09T05:25:08.638Z,24.77
2018-10-09T05:27:37.174Z,24.77
2018-10-09T05:30:05.819Z,26.37
2018-10-09T05:32:34.306Z,24.80
2018-10-09T05:35:02.853Z,23.87
2018-10-09T05:37:31.293Z,26.00
2018-10-09T05:39:59.754Z,26.60
2018-10-09T05:42:28.240Z,25.70
2018-10-09T05:44:56.733Z,25.68
2018-10-09T05:47:25.155Z,24.25
2018-10-09T05:49:53.699Z,25.02
2018-10-09T05:52:22.171Z,24.85
2018-10-09T05:54:50.706Z,24.50
2018-10-09T05:57:19.165Z,24.15
2018-10-09T05:59:48.274Z,23.50
2018-10-09T06:02:16.748Z,23.73
2018-10-09T06:04:45.194Z,23.30
2018-10-09T06:07:13.651Z,23.75
2018-10-09T06:09:42.103Z,23.07
2018-10-09T06:12:10.506Z,21.55
2018-10-09T06:14:38.972Z,22.00
2018-10-09T06:17:07.851Z,21.65
2018-10-09T06:19:36.258Z,20.97
2018-10-09T06:22:04.801Z,21.95
2018-10-09T06:24:33.280Z,20.30
2018-10-09T06:27:01.735Z,21.55
2018-10-09T06:29:30.133Z,21.48
2018-10-09T06:31:58.752Z,22.07
2018-10-09T06:34:27.287Z,23.07
2018-10-09T06:36:55.756Z,23.40
2018-10-09T06:39:24.210Z,24.02
2018-10-09T06:41:52.618Z,23.90
2018-10-09T06:44:21.137Z,23.75
2018-10-09T06:46:49.534Z,23.15
2018-10-09T06:49:17.922Z,22.77
2018-10-09T06:51:46.347Z,23.20
2018-10-09T06:54:15.945Z,23.02
2018-10-09T06:56:44.257Z,24.02
2018-10-09T06:59:12.689Z,23.47
2018-10-09T07:01:41.159Z,23.45
2018-10-09T07:04:09.613Z,23.20
2018-10-09T07:06:38.083Z,25.68
2018-10-09T07:09:09.230Z,25.37
2018-10-09T07:11:37.700Z,24.40
2018-10-09T07:14:06.231Z,25.27
2018-10-09T07:16:34.784Z,25.32
2018-10-09T07:19:04.098Z,25.48
2018-10-09T07:21:32.647Z,23.75
2018-10-09T07:24:01.175Z,24.90
2018-10-09T07:26:29.651Z,25.60
2018-10-09T07:28:58.403Z,24.50
2018-10-09T07:31:26.935Z,25.55
2018-10-09T07:33:55.732Z,24.57
2018-10-09T07:36:24.191Z,25.60
2018-10-09T07:38:52.627Z,26.00
2018-10-09T07:41:21.042Z,26.23
2018-10-09T07:43:49.650Z,25.77
2018-10-09T07:46:18.041Z,25.88
2018-10-09T07:48:46.508Z,25.52
2018-10-09T07:51:14.906Z,25.88
2018-10-09T07:53:43.454Z,25.72
2018-10-09T08:53:04.744Z,26.17
2018-10-09T08:55:33.291Z,26.80
2018-10-09T08:58:02.621Z,29.15
2018-10-09T09:00:31.088Z,26.93
2018-10-09T09:02:59.557Z,29.50
2018-10-09T09:05:28.205Z,27.20
2018-10-09T09:07:56.730Z,25.52
2018-10-09T09:10:25.410Z,26.57
2018-10-09T09:12:54.541Z,26.40
2018-10-09T09:15:23.125Z,30.10
2018-10-09T09:17:51.656Z,27.05
2018-10-09T09:20:20.149Z,27.07
2018-10-09T10:17:12.436Z,28.45
2018-10-09T10:19:41.488Z,29.23
2018-10-09T10:22:10.058Z,29.92
2018-10-09T10:24:38.597Z,31.30
2018-10-09T10:27:07.192Z,27.62
2018-10-09T10:29:35.786Z,29.70
2018-10-09T10:32:04.297Z,28.32
2018-10-09T10:34:32.845Z,29.23
2018-10-09T10:37:01.349Z,27.13
2018-10-09T10:39:29.873Z,26.00
2018-10-09T10:41:58.491Z,28.05
2018-10-09T10:44:26.941Z,29.50
2018-10-09T10:46:55.540Z,30.20
2018-10-09T10:49:24.058Z,30.23
2018-10-09T10:51:52.523Z,27.62
2018-10-09T10:54:21.045Z,28.95
2018-10-09T10:56:49.610Z,29.23
2018-10-09T10:59:18.239Z,28.85
2018-10-09T11:01:46.813Z,29.57
2018-10-09T11:04:15.350Z,32.20
2018-10-09T11:06:44.075Z,29.85
2018-10-09T11:09:12.639Z,30.77
2018-10-09T11:11:41.200Z,31.55
2018-10-09T11:14:09.802Z,31.00
2018-10-09T11:16:38.430Z,31.20
2018-10-09T11:19:06.981Z,32.53
2018-10-09T11:21:36.044Z,29.72
2018-10-09T11:24:04.548Z,29.90
2018-10-09T11:26:33.103Z,33.98
2018-10-09T11:29:01.696Z,30.95
2018-10-09T11:31:30.878Z,30.20
2018-10-09T11:33:59.413Z,31.75
2018-10-09T11:36:27.883Z,30.52
2018-10-09T11:38:56.375Z,30.62
2018-10-09T11:41:24.954Z,32.35
2018-10-09T11:43:53.570Z,30.82
2018-10-09T11:46:22.209Z,23.67
2018-10-09T11:48:50.767Z,31.85
2018-10-09T11:51:19.264Z,30.55
2018-10-09T11:53:47.815Z,30.82
2018-10-09T11:56:16.376Z,30.48
2018-10-09T11:58:44.955Z,30.35
2018-10-09T12:01:13.632Z,31.82
2018-10-09T12:03:42.251Z,31.52
2018-10-09T12:06:10.929Z,32.00
2018-10-09T12:08:39.392Z,30.72
2018-10-09T12:11:07.891Z,31.37
2018-10-09T12:13:36.525Z,30.65
2018-10-09T12:16:05.139Z,31.30
2018-10-09T12:18:34.582Z,30.65
2018-10-09T12:21:03.099Z,31.75
2018-10-09T12:23:31.633Z,31.77
2018-10-09T12:26:00.246Z,33.53
2018-10-09T12:28:28.760Z,31.97
2018-10-09T12:30:57.394Z,35.03
2018-10-09T12:33:25.984Z,33.13
2018-10-09T12:35:54.534Z,35.70
2018-10-09T12:38:23.191Z,31.20
2018-10-09T12:40:51.618Z,31.55
2018-10-09T12:43:20.263Z,32.05
2018-10-09T12:45:48.822Z,34.48
2018-10-09T12:48:17.364Z,31.02
2018-10-09T12:50:45.940Z,33.05
2018-10-09T12:53:14.457Z,31.60
2018-10-09T12:55:42.965Z,29.72
2018-10-09T12:58:11.574Z,34.70
2018-10-09T13:00:40.178Z,30.62
2018-10-09T13:03:08.350Z,31.02
2018-10-09T13:05:35.840Z,30.57
2018-10-09T13:08:03.376Z,33.10
2018-10-09T13:10:30.842Z,30.65
2018-10-09T13:12:58.341Z,29.90
2018-10-09T13:15:26.087Z,31.27
2018-10-09T13:17:53.577Z,30.88
2018-10-09T13:20:21.067Z,31.55
2018-10-09T13:22:48.661Z,30.70
2018-10-09T13:25:16.163Z,30.27
2018-10-09T13:27:43.737Z,30.57
2018-10-09T13:30:11.354Z,33.05
2018-10-09T13:32:38.876Z,29.67
2018-10-09T13:35:06.396Z,32.55
2018-10-09T13:39:32.570Z,33.60
2018-10-09T13:42:01.293Z,34.60
2018-10-09T13:44:29.802Z,32.88
2018-10-09T13:46:58.387Z,32.50
2018-10-09T13:49:27.014Z,32.03
2018-10-09T13:51:55.509Z,30.85
2018-10-09T13:54:24.194Z,35.00
2018-10-09T13:56:52.770Z,32.95
2018-10-09T13:59:21.427Z,33.10
2018-10-09T14:01:50.232Z,29.35
2018-10-09T14:04:18.804Z,33.08
2018-10-09T14:06:47.300Z,32.90
2018-10-09T14:09:15.934Z,32.00
2018-10-09T14:11:44.508Z,30.65
2018-10-09T14:14:13.129Z,29.92
2018-10-09T14:16:41.749Z,29.20
2018-10-09T14:19:10.343Z,29.92
2018-10-09T14:21:38.969Z,30.88
2018-10-09T14:24:07.636Z,30.55
2018-10-09T14:26:36.320Z,28.42
2018-10-09T14:29:04.888Z,28.85
2018-10-09T14:31:33.413Z,30.88
2018-10-09T14:34:01.966Z,31.37
2018-10-09T14:36:30.607Z,29.92
2018-10-09T14:38:59.163Z,31.23
2018-10-09T14:41:27.751Z,27.87
2018-10-09T14:43:56.395Z,29.70
2018-10-09T14:46:24.972Z,28.07
2018-10-09T14:48:53.694Z,29.15
2018-10-09T14:51:22.343Z,27.77
2018-10-09T14:53:50.922Z,29.37
2018-10-09T14:56:19.535Z,28.17
2018-10-09T14:58:48.191Z,28.02
2018-10-09T15:01:16.800Z,27.35
2018-10-09T15:03:45.325Z,25.57
2018-10-09T15:06:13.923Z,29.15
2018-10-09T15:08:42.504Z,25.55
2018-10-09T15:11:11.079Z,24.90
2018-10-09T15:13:39.774Z,26.05
2018-10-09T15:16:08.504Z,24.07
2018-10-09T15:18:37.149Z,25.95
2018-10-09T15:21:05.787Z,26.40
2018-10-09T15:23:34.435Z,27.05
2018-10-09T15:26:02.983Z,25.00
2018-10-09T15:28:31.628Z,24.57
2018-10-09T15:31:00.423Z,25.32
2018-10-09T15:33:29.019Z,25.95
2018-10-09T15:35:57.607Z,23.83
2018-10-09T15:38:26.284Z,24.32
2018-10-09T15:40:54.815Z,22.45
2018-10-09T15:43:23.432Z,20.80
2018-10-09T15:45:52.004Z,21.90
2018-10-09T15:48:20.603Z,20.02
2018-10-09T15:50:49.129Z,21.10
2018-10-09T15:53:17.728Z,21.25
2018-10-09T15:55:46.272Z,21.95
2018-10-09T15:58:15.067Z,18.77
2018-10-09T16:00:43.641Z,19.55
2018-10-09T16:03:12.240Z,21.82
2018-10-09T16:05:40.914Z,21.27
2018-10-09T16:08:09.571Z,20.35
2018-10-09T16:10:38.151Z,20.92
2018-10-09T16:13:06.794Z,21.42
2018-10-09T16:15:35.350Z,20.23
2018-10-09T16:18:04.030Z,19.95
2018-10-09T16:20:32.676Z,21.62
2018-10-09T16:23:01.418Z,21.12
2018-10-09T16:25:35.151Z,21.40
2018-10-09T16:28:03.922Z,18.92
2018-10-09T16:30:32.691Z,19.35
2018-10-09T16:33:01.443Z,20.25
2018-10-09T16:35:29.208Z,20.12
2018-10-09T16:37:56.805Z,21.90
2018-10-09T16:40:24.441Z,19.87
2018-10-09T16:42:51.971Z,22.35
2018-10-09T16:45:19.454Z,26.35
2018-10-09T16:47:46.998Z,25.95
2018-10-09T16:50:14.565Z,20.97
2018-10-09T16:52:42.235Z,20.72
2018-10-09T16:55:09.760Z,21.75
2018-10-09T16:57:37.408Z,25.55
2018-10-09T17:00:04.984Z,20.65
2018-10-09T17:02:32.592Z,21.15
2018-10-09T17:05:00.095Z,20.30
2018-10-09T17:07:27.587Z,22.32
2018-10-09T17:09:55.116Z,20.92
2018-10-09T17:12:22.717Z,20.00
2018-10-09T17:14:50.397Z,19.50
2018-10-09T17:17:17.997Z,20.05
2018-10-09T17:19:45.599Z,20.57
2018-10-09T17:22:13.210Z,21.80
2018-10-09T17:24:40.803Z,21.12
2018-10-09T17:27:08.440Z,20.23
2018-10-09T17:29:36.053Z,20.90
2018-10-09T17:32:03.713Z,20.27
2018-10-09T17:34:31.281Z,21.85
2018-10-09T17:36:58.882Z,22.77
2018-10-09T17:39:26.477Z,21.97
2018-10-09T17:41:54.067Z,20.25
2018-10-09T17:44:21.700Z,22.85
2018-10-09T17:46:49.296Z,22.87
2018-10-09T17:49:16.869Z,22.50
2018-10-09T17:51:44.572Z,21.45
2018-10-09T17:54:12.157Z,21.17
2018-10-09T17:56:39.702Z,21.57
2018-10-09T17:59:07.342Z,19.90
2018-10-09T18:01:35.030Z,21.75
2018-10-09T18:04:02.508Z,22.32
2018-10-09T18:06:31.416Z,22.42
2018-10-09T18:08:59.149Z,21.77
2018-10-09T18:11:26.691Z,21.42
2018-10-09T18:13:54.386Z,21.33
2018-10-09T18:16:21.990Z,22.20
2018-10-09T18:18:49.599Z,21.25
2018-10-09T18:21:17.242Z,22.07
2018-10-09T18:23:44.926Z,20.40
2018-10-09T18:26:12.500Z,20.40
2018-10-09T18:28:40.181Z,21.15
2018-10-09T18:31:07.774Z,23.05
2018-10-09T18:33:35.406Z,22.45
2018-10-09T18:36:03.080Z,20.97
2018-10-09T18:38:30.789Z,21.87
2018-10-09T18:40:58.539Z,20.52
2018-10-09T18:43:26.348Z,22.60
2018-10-09T18:45:53.963Z,21.30
2018-10-09T18:48:21.590Z,22.13
2018-10-09T18:50:49.203Z,21.55
2018-10-09T18:53:16.793Z,21.57
2018-10-09T18:55:44.548Z,22.27
2018-10-09T18:58:12.133Z,22.27
2018-10-09T19:00:39.729Z,21.02
2018-10-09T19:03:07.505Z,20.77
2018-10-09T19:05:35.204Z,22.60
2018-10-09T19:08:02.960Z,22.90
2018-10-09T19:10:30.617Z,21.60
2018-10-09T19:12:58.258Z,21.90
2018-10-09T19:15:25.942Z,21.15
2018-10-09T19:17:53.604Z,22.50
2018-10-09T19:20:21.273Z,21.12
2018-10-09T19:22:48.918Z,21.40
2018-10-09T19:25:16.579Z,20.82
2018-10-09T19:27:44.244Z,20.65
2018-10-09T19:30:11.767Z,21.10
2018-10-09T19:32:39.441Z,21.07
2018-10-09T19:35:06.968Z,19.75
2018-10-09T19:37:34.617Z,21.37
2018-10-09T19:40:02.138Z,20.02
2018-10-09T19:42:29.770Z,18.32
2018-10-09T19:44:57.299Z,18.92
2018-10-09T19:47:24.817Z,19.98
2018-10-09T19:49:52.465Z,20.20
2018-10-09T19:52:20.069Z,21.05
2018-10-09T19:54:47.728Z,20.00
2018-10-09T19:57:15.332Z,42.70
2018-10-09T19:59:42.948Z,26.33
2018-10-09T20:02:10.691Z,20.65
2018-10-09T20:04:38.408Z,20.60
2018-10-09T20:07:06.052Z,22.50
2018-10-09T20:09:33.547Z,20.17
2018-10-09T20:12:01.221Z,19.77
2018-10-09T20:14:28.973Z,21.52
2018-10-09T20:16:56.618Z,21.55
2018-10-09T20:19:24.212Z,20.97
2018-10-09T20:21:51.781Z,20.48
2018-10-09T20:24:19.306Z,20.40
2018-10-09T20:26:46.894Z,20.82
2018-10-09T20:29:14.442Z,23.95
2018-10-09T20:31:41.930Z,22.02
2018-10-09T20:34:09.492Z,20.20
2018-10-09T20:36:37.054Z,20.80
2018-10-09T20:39:05.795Z,21.55
2018-10-09T20:41:33.315Z,20.60
2018-10-09T20:44:00.919Z,19.35
2018-10-09T20:46:28.450Z,20.95
2018-10-09T20:48:55.929Z,19.77
2018-10-09T20:51:23.446Z,20.95
2018-10-09T20:53:50.969Z,22.13
2018-10-09T20:56:18.563Z,23.80
2018-10-09T20:58:46.153Z,21.45
2018-10-09T21:01:13.726Z,22.37
2018-10-09T21:03:41.240Z,20.97
2018-10-09T21:06:08.820Z,20.82
2018-10-09T21:08:36.304Z,20.45
2018-10-09T21:11:03.887Z,20.27
2018-10-09T21:13:31.405Z,21.25
2018-10-09T21:15:58.884Z,20.52
2018-10-09T21:18:26.351Z,20.45
2018-10-09T21:20:53.840Z,21.45
2018-10-09T21:23:21.398Z,21.17
2018-10-09T21:25:48.957Z,21.45
2018-10-09T21:28:16.506Z,21.50
2018-10-09T21:30:44.027Z,21.15
2018-10-09T21:33:11.641Z,20.68
2018-10-09T21:35:39.119Z,22.00
2018-10-09T21:38:06.657Z,22.17
2018-10-09T21:40:34.199Z,21.90
2018-10-09T21:43:01.715Z,20.95
2018-10-09T21:45:29.264Z,21.05
2018-10-09T21:48:01.190Z,21.05
2018-10-09T21:50:28.788Z,21.37
2018-10-09T21:52:56.453Z,20.92
2018-10-09T21:55:24.247Z,21.20
2018-10-09T21:57:51.715Z,19.67
2018-10-09T22:00:19.234Z,21.17
2018-10-09T22:02:46.728Z,21.30
2018-10-09T22:05:14.262Z,20.52
2018-10-09T22:07:41.763Z,20.45
2018-10-09T22:10:09.350Z,19.48
2018-10-09T22:12:36.866Z,21.05
2018-10-09T22:15:04.612Z,22.42
2018-10-09T22:17:32.086Z,21.90
2018-10-09T22:19:59.851Z,21.42
2018-10-09T22:22:27.297Z,21.90
2018-10-09T22:24:54.810Z,22.42
2018-10-09T22:27:22.691Z,21.75
2018-10-09T22:29:50.204Z,21.52
2018-10-09T22:32:17.688Z,23.07
2018-10-09T22:34:45.194Z,24.98
2018-10-09T22:37:12.893Z,23.27
2018-10-09T22:39:40.426Z,24.43
2018-10-09T22:42:07.852Z,23.45
2018-10-09T22:44:35.521Z,22.60
2018-10-09T22:47:02.988Z,23.27
2018-10-09T22:49:30.489Z,24.30
2018-10-09T22:51:57.993Z,24.95
2018-10-09T22:54:25.465Z,25.80
2018-10-09T22:56:53.201Z,25.43
2018-10-09T22:59:20.701Z,26.48
2018-10-09T23:01:48.143Z,27.15
2018-10-09T23:04:15.619Z,27.20
2018-10-09T23:06:43.092Z,26.55
2018-10-09T23:09:11.632Z,26.62
2018-10-09T23:11:39.040Z,26.77
2018-10-09T23:14:06.500Z,26.75
2018-10-09T23:16:33.979Z,26.42
2018-10-09T23:19:01.510Z,24.60
2018-10-09T23:21:28.944Z,24.70
2018-10-09T23:23:56.350Z,25.82
2018-10-09T23:26:23.849Z,25.80
2018-10-09T23:28:51.324Z,26.23
2018-10-09T23:31:18.801Z,26.05
2018-10-09T23:33:46.250Z,26.48
2018-10-09T23:36:13.669Z,24.60
2018-10-09T23:38:41.167Z,24.50
2018-10-09T23:41:08.580Z,26.33
2018-10-09T23:43:36.030Z,24.95
2018-10-09T23:46:03.492Z,24.30
2018-10-09T23:48:30.943Z,25.50
2018-10-09T23:50:58.349Z,25.80
2018-10-09T23:53:25.802Z,24.23
2018-10-09T23:55:53.188Z,25.43
2018-10-09T23:58:20.682Z,25.70
